sensor_id;sensor_type;location;lat;lon;timestamp;temperature;humidity
36384;DHT22;22418;51.210;6.976;2024-03-23T00:53:56;10.00;1.00
36384;DHT22;22418;51.210;6.976;2024-03-23T00:56:26;9.70;1.00
36384;DHT22;22418;51.210;6.976;2024-03-23T00:58:57;9.80;1.00
36384;DHT22;22418;51.210;6.976;2024-03-23T01:01:27;9.90;1.00
36384;DHT22;22418;51.210;6.976;2024-03-23T01:03:58;9.90;1.00
36384;DHT22;22418;51.210;6.976;2024-03-23T01:06:29;9.90;1.00
36384;DHT22;22418;51.210;6.976;2024-03-23T01:09:00;9.90;1.00
36384;DHT22;22418;51.210;6.976;2024-03-23T01:11:30;10.00;1.00
36384;DHT22;22418;51.210;6.976;2024-03-23T01:14:01;10.00;1.00
36384;DHT22;22418;51.210;6.976;2024-03-23T01:16:32;10.10;1.00
36384;DHT22;22418;51.210;6.976;2024-03-23T01:19:02;10.00;1.00
36384;DHT22;22418;51.210;6.976;2024-03-23T01:21:33;10.00;1.00
36384;DHT22;22418;51.210;6.976;2024-03-23T01:24:03;10.00;1.00
36384;DHT22;22418;51.210;6.976;2024-03-23T01:26:34;9.90;1.00
36384;DHT22;22418;51.210;6.976;2024-03-23T01:29:04;9.80;1.00
36384;DHT22;22418;51.210;6.976;2024-03-23T01:31:35;9.60;1.00
36384;DHT22;22418;51.210;6.976;2024-03-23T01:34:06;9.50;1.00
36384;DHT22;22418;51.210;6.976;2024-03-23T01:36:36;9.60;1.00
36384;DHT22;22418;51.210;6.976;2024-03-23T01:39:07;9.60;1.00
36384;DHT22;22418;51.210;6.976;2024-03-23T01:41:40;9.60;1.00
36384;DHT22;22418;51.210;6.976;2024-03-23T01:44:12;9.70;1.00
36384;DHT22;22418;51.210;6.976;2024-03-23T01:46:44;9.80;1.00
36384;DHT22;22418;51.210;6.976;2024-03-23T01:49:14;9.70;1.00
36384;DHT22;22418;51.210;6.976;2024-03-23T01:51:45;9.60;1.00
36384;DHT22;22418;51.210;6.976;2024-03-23T01:54:16;9.70;1.00
36384;DHT22;22418;51.210;6.976;2024-03-23T01:56:47;9.70;1.00
36384;DHT22;22418;51.210;6.976;2024-03-23T01:59:19;9.60;1.00
36384;DHT22;22418;51.210;6.976;2024-03-23T02:01:50;9.60;1.00
36384;DHT22;22418;51.210;6.976;2024-03-23T02:04:20;9.60;1.00
36384;DHT22;22418;51.210;6.976;2024-03-23T02:06:51;9.60;1.00
36384;DHT22;22418;51.210;6.976;2024-03-23T02:09:22;9.60;1.00
36384;DHT22;22418;51.210;6.976;2024-03-23T02:11:52;9.60;1.00
36384;DHT22;22418;51.210;6.976;2024-03-23T02:14:23;9.70;1.00
36384;DHT22;22418;51.210;6.976;2024-03-23T02:16:54;9.60;1.00
36384;DHT22;22418;51.210;6.976;2024-03-23T02:19:24;9.60;1.00
36384;DHT22;22418;51.210;6.976;2024-03-23T02:21:55;9.40;1.00
36384;DHT22;22418;51.210;6.976;2024-03-23T02:24:25;9.50;1.00
36384;DHT22;22418;51.210;6.976;2024-03-23T02:26:56;9.60;1.00
36384;DHT22;22418;51.210;6.976;2024-03-23T02:29:26;9.50;1.00
36384;DHT22;22418;51.210;6.976;2024-03-23T02:31:57;9.60;1.00
36384;DHT22;22418;51.210;6.976;2024-03-23T02:34:29;9.70;1.00
36384;DHT22;22418;51.210;6.976;2024-03-23T02:36:59;9.80;1.00
36384;DHT22;22418;51.210;6.976;2024-03-23T02:39:30;9.80;1.00
36384;DHT22;22418;51.210;6.976;2024-03-23T02:42:00;9.90;1.00
36384;DHT22;22418;51.210;6.976;2024-03-23T02:44:31;10.00;1.00
36384;DHT22;22418;51.210;6.976;2024-03-23T02:47:02;10.00;1.00
36384;DHT22;22418;51.210;6.976;2024-03-23T02:49:32;10.00;1.00
36384;DHT22;22418;51.210;6.976;2024-03-23T02:52:03;10.10;1.00
36384;DHT22;22418;51.210;6.976;2024-03-23T02:54:34;10.00;1.00
36384;DHT22;22418;51.210;6.976;2024-03-23T02:57:04;10.10;1.00
36384;DHT22;22418;51.210;6.976;2024-03-23T02:59:35;9.90;1.00
36384;DHT22;22418;51.210;6.976;2024-03-23T03:02:05;9.90;12.70
36384;DHT22;22418;51.210;6.976;2024-03-23T03:04:37;10.00;1.00
36384;DHT22;22418;51.210;6.976;2024-03-23T03:07:07;10.10;1.00
36384;DHT22;22418;51.210;6.976;2024-03-23T03:09:38;10.10;41.20
36384;DHT22;22418;51.210;6.976;2024-03-23T03:12:09;10.00;1.00
36384;DHT22;22418;51.210;6.976;2024-03-23T03:14:40;10.00;1.00
36384;DHT22;22418;51.210;6.976;2024-03-23T03:17:10;10.00;1.00
36384;DHT22;22418;51.210;6.976;2024-03-23T03:19:41;10.00;1.00
36384;DHT22;22418;51.210;6.976;2024-03-23T03:22:11;10.00;1.00
36384;DHT22;22418;51.210;6.976;2024-03-23T03:24:42;10.00;1.00
36384;DHT22;22418;51.210;6.976;2024-03-23T03:27:12;10.00;1.00
36384;DHT22;22418;51.210;6.976;2024-03-23T03:29:43;10.20;72.60
36384;DHT22;22418;51.210;6.976;2024-03-23T03:32:14;10.10;93.50
36384;DHT22;22418;51.210;6.976;2024-03-23T03:34:44;10.10;96.30
36384;DHT22;22418;51.210;6.976;2024-03-23T03:37:15;10.10;97.50
36384;DHT22;22418;51.210;6.976;2024-03-23T03:39:45;10.00;99.90
36384;DHT22;22418;51.210;6.976;2024-03-23T03:42:16;10.10;99.90
36384;DHT22;22418;51.210;6.976;2024-03-23T03:44:46;10.10;99.90
36384;DHT22;22418;51.210;6.976;2024-03-23T03:47:17;10.10;99.90
36384;DHT22;22418;51.210;6.976;2024-03-23T03:49:47;10.00;99.90
36384;DHT22;22418;51.210;6.976;2024-03-23T03:52:18;10.00;99.90
36384;DHT22;22418;51.210;6.976;2024-03-23T03:54:48;10.00;99.90
36384;DHT22;22418;51.210;6.976;2024-03-23T03:57:19;10.00;99.90
36384;DHT22;22418;51.210;6.976;2024-03-23T03:59:50;10.00;99.90
36384;DHT22;22418;51.210;6.976;2024-03-23T04:02:20;10.00;99.90
36384;DHT22;22418;51.210;6.976;2024-03-23T04:04:51;10.00;99.90
36384;DHT22;22418;51.210;6.976;2024-03-23T04:07:21;10.20;99.90
36384;DHT22;22418;51.210;6.976;2024-03-23T04:09:53;10.00;99.90
36384;DHT22;22418;51.210;6.976;2024-03-23T04:12:24;10.00;99.90
36384;DHT22;22418;51.210;6.976;2024-03-23T04:14:54;10.00;99.90
36384;DHT22;22418;51.210;6.976;2024-03-23T04:17:25;10.10;99.90
36384;DHT22;22418;51.210;6.976;2024-03-23T04:19:56;10.00;99.90
36384;DHT22;22418;51.210;6.976;2024-03-23T04:22:27;10.00;99.90
36384;DHT22;22418;51.210;6.976;2024-03-23T04:24:58;10.00;99.90
36384;DHT22;22418;51.210;6.976;2024-03-23T04:27:28;10.00;99.90
36384;DHT22;22418;51.210;6.976;2024-03-23T04:29:59;9.90;99.90
36384;DHT22;22418;51.210;6.976;2024-03-23T04:32:32;10.00;99.90
36384;DHT22;22418;51.210;6.976;2024-03-23T04:35:02;10.00;99.90
36384;DHT22;22418;51.210;6.976;2024-03-23T04:37:38;10.00;99.90
36384;DHT22;22418;51.210;6.976;2024-03-23T04:40:12;10.00;99.90
36384;DHT22;22418;51.210;6.976;2024-03-23T04:42:43;10.10;99.90
36384;DHT22;22418;51.210;6.976;2024-03-23T04:45:13;10.00;99.90
36384;DHT22;22418;51.210;6.976;2024-03-23T04:47:44;9.90;99.90
36384;DHT22;22418;51.210;6.976;2024-03-23T04:50:14;9.90;99.90
36384;DHT22;22418;51.210;6.976;2024-03-23T04:52:45;9.90;99.90
36384;DHT22;22418;51.210;6.976;2024-03-23T04:55:16;9.90;99.90
36384;DHT22;22418;51.210;6.976;2024-03-23T04:57:47;10.00;99.90
36384;DHT22;22418;51.210;6.976;2024-03-23T05:00:18;10.00;99.90
36384;DHT22;22418;51.210;6.976;2024-03-23T05:02:49;10.00;99.90
36384;DHT22;22418;51.210;6.976;2024-03-23T05:05:19;10.00;99.90
36384;DHT22;22418;51.210;6.976;2024-03-23T05:07:50;9.90;99.90
36384;DHT22;22418;51.210;6.976;2024-03-23T05:10:21;10.00;99.90
36384;DHT22;22418;51.210;6.976;2024-03-23T05:12:51;9.90;99.90
36384;DHT22;22418;51.210;6.976;2024-03-23T05:15:22;10.00;99.90
36384;DHT22;22418;51.210;6.976;2024-03-23T05:17:52;9.90;99.90
36384;DHT22;22418;51.210;6.976;2024-03-23T05:20:24;10.00;99.90
36384;DHT22;22418;51.210;6.976;2024-03-23T05:22:55;9.90;99.90
36384;DHT22;22418;51.210;6.976;2024-03-23T05:25:25;10.00;99.90
36384;DHT22;22418;51.210;6.976;2024-03-23T05:27:56;9.80;99.90
36384;DHT22;22418;51.210;6.976;2024-03-23T05:30:27;9.80;99.90
36384;DHT22;22418;51.210;6.976;2024-03-23T05:32:57;9.80;99.90
36384;DHT22;22418;51.210;6.976;2024-03-23T05:35:28;9.80;99.90
36384;DHT22;22418;51.210;6.976;2024-03-23T05:37:58;9.90;99.90
36384;DHT22;22418;51.210;6.976;2024-03-23T05:40:29;9.80;99.90
36384;DHT22;22418;51.210;6.976;2024-03-23T05:42:59;9.80;99.90
36384;DHT22;22418;51.210;6.976;2024-03-23T05:45:30;9.80;99.90
36384;DHT22;22418;51.210;6.976;2024-03-23T05:48:01;9.70;99.90
36384;DHT22;22418;51.210;6.976;2024-03-23T05:50:31;9.70;99.90
36384;DHT22;22418;51.210;6.976;2024-03-23T05:53:02;9.80;99.90
36384;DHT22;22418;51.210;6.976;2024-03-23T05:55:35;9.80;99.90
36384;DHT22;22418;51.210;6.976;2024-03-23T05:58:05;9.80;99.90
36384;DHT22;22418;51.210;6.976;2024-03-23T06:00:36;9.80;99.90
36384;DHT22;22418;51.210;6.976;2024-03-23T06:03:06;9.80;99.90
36384;DHT22;22418;51.210;6.976;2024-03-23T06:05:37;9.80;99.90
36384;DHT22;22418;51.210;6.976;2024-03-23T06:08:08;9.80;99.90
36384;DHT22;22418;51.210;6.976;2024-03-23T06:10:40;10.00;99.90
36384;DHT22;22418;51.210;6.976;2024-03-23T06:13:10;9.90;99.90
36384;DHT22;22418;51.210;6.976;2024-03-23T06:15:41;9.90;99.90
36384;DHT22;22418;51.210;6.976;2024-03-23T06:18:11;9.90;99.90
36384;DHT22;22418;51.210;6.976;2024-03-23T06:20:42;9.90;99.90
36384;DHT22;22418;51.210;6.976;2024-03-23T06:23:13;9.80;99.90
36384;DHT22;22418;51.210;6.976;2024-03-23T06:25:45;9.80;99.90
36384;DHT22;22418;51.210;6.976;2024-03-23T06:28:15;9.80;99.90
36384;DHT22;22418;51.210;6.976;2024-03-23T06:30:46;9.80;99.90
36384;DHT22;22418;51.210;6.976;2024-03-23T06:33:17;9.80;99.90
36384;DHT22;22418;51.210;6.976;2024-03-23T06:35:51;9.90;99.90
36384;DHT22;22418;51.210;6.976;2024-03-23T06:38:22;10.00;99.90
36384;DHT22;22418;51.210;6.976;2024-03-23T06:40:53;10.00;99.90
36384;DHT22;22418;51.210;6.976;2024-03-23T06:43:23;10.00;99.90
36384;DHT22;22418;51.210;6.976;2024-03-23T06:45:55;10.00;99.90
36384;DHT22;22418;51.210;6.976;2024-03-23T06:48:25;10.10;99.90
36384;DHT22;22418;51.210;6.976;2024-03-23T06:50:57;10.10;99.90
36384;DHT22;22418;51.210;6.976;2024-03-23T06:53:27;10.10;99.90
36384;DHT22;22418;51.210;6.976;2024-03-23T06:55:58;10.20;99.90
36384;DHT22;22418;51.210;6.976;2024-03-23T06:58:28;10.30;99.90
36384;DHT22;22418;51.210;6.976;2024-03-23T07:00:59;10.30;99.90
36384;DHT22;22418;51.210;6.976;2024-03-23T07:03:29;10.40;99.90
36384;DHT22;22418;51.210;6.976;2024-03-23T07:06:00;10.40;99.90
36384;DHT22;22418;51.210;6.976;2024-03-23T07:08:31;10.50;99.90
36384;DHT22;22418;51.210;6.976;2024-03-23T07:11:01;10.60;99.90
36384;DHT22;22418;51.210;6.976;2024-03-23T07:13:32;10.60;99.90
36384;DHT22;22418;51.210;6.976;2024-03-23T07:16:03;10.60;99.90
36384;DHT22;22418;51.210;6.976;2024-03-23T07:18:34;10.70;99.90
36384;DHT22;22418;51.210;6.976;2024-03-23T07:21:04;10.80;99.90
36384;DHT22;22418;51.210;6.976;2024-03-23T07:23:37;10.90;99.90
36384;DHT22;22418;51.210;6.976;2024-03-23T07:26:08;11.10;99.90
36384;DHT22;22418;51.210;6.976;2024-03-23T07:28:38;11.20;99.90
36384;DHT22;22418;51.210;6.976;2024-03-23T07:31:14;11.20;99.90
36384;DHT22;22418;51.210;6.976;2024-03-23T07:33:46;11.20;99.90
36384;DHT22;22418;51.210;6.976;2024-03-23T07:36:17;11.30;99.90
36384;DHT22;22418;51.210;6.976;2024-03-23T07:38:48;11.60;99.90
36384;DHT22;22418;51.210;6.976;2024-03-23T07:41:19;11.60;99.90
36384;DHT22;22418;51.210;6.976;2024-03-23T07:43:50;11.80;99.90
36384;DHT22;22418;51.210;6.976;2024-03-23T07:46:21;12.00;99.90
36384;DHT22;22418;51.210;6.976;2024-03-23T07:48:52;12.30;99.90
36384;DHT22;22418;51.210;6.976;2024-03-23T07:51:23;12.50;1.00
36384;DHT22;22418;51.210;6.976;2024-03-23T07:53:53;12.50;1.00
36384;DHT22;22418;51.210;6.976;2024-03-23T07:56:24;12.70;1.00
36384;DHT22;22418;51.210;6.976;2024-03-23T07:58:55;13.00;1.00
36384;DHT22;22418;51.210;6.976;2024-03-23T08:01:25;13.30;1.00
36384;DHT22;22418;51.210;6.976;2024-03-23T08:03:56;13.60;1.00
36384;DHT22;22418;51.210;6.976;2024-03-23T08:06:26;13.80;1.00
36384;DHT22;22418;51.210;6.976;2024-03-23T08:08:57;13.70;1.00
36384;DHT22;22418;51.210;6.976;2024-03-23T08:11:32;13.50;1.00
36384;DHT22;22418;51.210;6.976;2024-03-23T08:14:03;13.50;1.00
36384;DHT22;22418;51.210;6.976;2024-03-23T08:16:34;13.50;1.00
36384;DHT22;22418;51.210;6.976;2024-03-23T08:19:05;13.80;1.00
36384;DHT22;22418;51.210;6.976;2024-03-23T08:21:35;14.00;1.00
36384;DHT22;22418;51.210;6.976;2024-03-23T08:24:06;14.10;1.00
36384;DHT22;22418;51.210;6.976;2024-03-23T08:26:37;14.30;1.00
36384;DHT22;22418;51.210;6.976;2024-03-23T08:29:07;14.10;1.00
36384;DHT22;22418;51.210;6.976;2024-03-23T08:31:38;14.30;99.90
36384;DHT22;22418;51.210;6.976;2024-03-23T08:34:09;14.50;1.00
36384;DHT22;22418;51.210;6.976;2024-03-23T08:36:39;14.60;1.00
36384;DHT22;22418;51.210;6.976;2024-03-23T08:39:10;14.70;1.00
36384;DHT22;22418;51.210;6.976;2024-03-23T08:41:41;14.70;1.00
36384;DHT22;22418;51.210;6.976;2024-03-23T08:44:13;14.30;99.90
36384;DHT22;22418;51.210;6.976;2024-03-23T08:46:44;14.10;1.00
36384;DHT22;22418;51.210;6.976;2024-03-23T08:49:14;14.10;99.90
36384;DHT22;22418;51.210;6.976;2024-03-23T08:51:45;14.20;99.90
36384;DHT22;22418;51.210;6.976;2024-03-23T08:54:16;13.90;99.90
36384;DHT22;22418;51.210;6.976;2024-03-23T08:56:46;13.50;99.90
36384;DHT22;22418;51.210;6.976;2024-03-23T08:59:17;13.40;99.90
36384;DHT22;22418;51.210;6.976;2024-03-23T09:01:47;13.40;99.90
36384;DHT22;22418;51.210;6.976;2024-03-23T09:04:19;13.50;99.90
36384;DHT22;22418;51.210;6.976;2024-03-23T09:06:49;13.40;99.90
36384;DHT22;22418;51.210;6.976;2024-03-23T09:09:20;13.40;99.90
36384;DHT22;22418;51.210;6.976;2024-03-23T09:11:50;13.10;99.90
36384;DHT22;22418;51.210;6.976;2024-03-23T09:14:22;13.20;99.90
36384;DHT22;22418;51.210;6.976;2024-03-23T09:16:53;13.30;99.90
36384;DHT22;22418;51.210;6.976;2024-03-23T09:19:23;13.50;99.90
36384;DHT22;22418;51.210;6.976;2024-03-23T09:21:54;13.70;99.90
36384;DHT22;22418;51.210;6.976;2024-03-23T09:24:24;13.70;99.90
36384;DHT22;22418;51.210;6.976;2024-03-23T09:26:55;13.90;99.90
36384;DHT22;22418;51.210;6.976;2024-03-23T09:29:25;14.30;99.90
36384;DHT22;22418;51.210;6.976;2024-03-23T09:31:56;14.20;99.90
36384;DHT22;22418;51.210;6.976;2024-03-23T09:34:26;13.90;99.90
36384;DHT22;22418;51.210;6.976;2024-03-23T09:36:57;13.50;99.90
36384;DHT22;22418;51.210;6.976;2024-03-23T09:39:28;13.20;99.90
36384;DHT22;22418;51.210;6.976;2024-03-23T09:41:58;12.80;99.90
36384;DHT22;22418;51.210;6.976;2024-03-23T09:44:29;12.50;99.90
36384;DHT22;22418;51.210;6.976;2024-03-23T09:46:59;12.30;99.90
36384;DHT22;22418;51.210;6.976;2024-03-23T09:49:30;12.40;99.90
36384;DHT22;22418;51.210;6.976;2024-03-23T09:52:01;12.50;99.90
36384;DHT22;22418;51.210;6.976;2024-03-23T09:54:31;12.50;99.90
36384;DHT22;22418;51.210;6.976;2024-03-23T09:57:03;12.30;99.90
36384;DHT22;22418;51.210;6.976;2024-03-23T09:59:34;12.20;99.90
36384;DHT22;22418;51.210;6.976;2024-03-23T10:02:05;12.20;99.90
36384;DHT22;22418;51.210;6.976;2024-03-23T10:04:44;12.30;99.90
36384;DHT22;22418;51.210;6.976;2024-03-23T10:07:19;12.40;99.90
36384;DHT22;22418;51.210;6.976;2024-03-23T10:09:50;12.40;99.90
36384;DHT22;22418;51.210;6.976;2024-03-23T10:12:24;12.20;99.90
36384;DHT22;22418;51.210;6.976;2024-03-23T10:14:55;11.70;99.90
36384;DHT22;22418;51.210;6.976;2024-03-23T10:17:25;11.20;99.90
36384;DHT22;22418;51.210;6.976;2024-03-23T10:19:56;11.20;99.90
36384;DHT22;22418;51.210;6.976;2024-03-23T10:22:27;11.10;99.90
36384;DHT22;22418;51.210;6.976;2024-03-23T10:25:07;11.20;99.90
36384;DHT22;22418;51.210;6.976;2024-03-23T10:27:38;11.40;99.90
36384;DHT22;22418;51.210;6.976;2024-03-23T10:30:13;11.70;99.90
36384;DHT22;22418;51.210;6.976;2024-03-23T10:32:47;11.90;99.90
36384;DHT22;22418;51.210;6.976;2024-03-23T10:35:20;12.10;99.90
36384;DHT22;22418;51.210;6.976;2024-03-23T10:37:54;11.90;99.90
36384;DHT22;22418;51.210;6.976;2024-03-23T10:40:27;12.40;99.90
36384;DHT22;22418;51.210;6.976;2024-03-23T10:42:59;12.70;99.90
36384;DHT22;22418;51.210;6.976;2024-03-23T10:45:30;12.90;99.90
36384;DHT22;22418;51.210;6.976;2024-03-23T10:48:02;12.80;99.90
36384;DHT22;22418;51.210;6.976;2024-03-23T10:50:33;12.40;99.90
36384;DHT22;22418;51.210;6.976;2024-03-23T10:53:03;11.90;99.90
36384;DHT22;22418;51.210;6.976;2024-03-23T10:55:34;11.20;99.90
36384;DHT22;22418;51.210;6.976;2024-03-23T10:58:05;11.00;99.90
36384;DHT22;22418;51.210;6.976;2024-03-23T11:00:37;10.90;99.90
36384;DHT22;22418;51.210;6.976;2024-03-23T11:06:01;10.20;99.90
36384;DHT22;22418;51.210;6.976;2024-03-23T11:08:38;10.30;99.90
36384;DHT22;22418;51.210;6.976;2024-03-23T11:11:18;10.10;99.90
36384;DHT22;22418;51.210;6.976;2024-03-23T11:13:50;10.20;99.90
36384;DHT22;22418;51.210;6.976;2024-03-23T11:18:52;10.30;99.90
36384;DHT22;22418;51.210;6.976;2024-03-23T11:21:54;10.50;99.90
36384;DHT22;22418;51.210;6.976;2024-03-23T11:24:25;10.50;99.90
36384;DHT22;22418;51.210;6.976;2024-03-23T11:26:55;10.30;99.90
36384;DHT22;22418;51.210;6.976;2024-03-23T11:29:26;10.40;99.90
36384;DHT22;22418;51.210;6.976;2024-03-23T11:31:57;10.40;99.90
36384;DHT22;22418;51.210;6.976;2024-03-23T11:34:28;10.60;99.90
36384;DHT22;22418;51.210;6.976;2024-03-23T11:37:05;10.80;99.90
36384;DHT22;22418;51.210;6.976;2024-03-23T11:39:37;10.70;99.90
36384;DHT22;22418;51.210;6.976;2024-03-23T11:42:07;10.80;99.90
36384;DHT22;22418;51.210;6.976;2024-03-23T11:44:38;11.00;99.90
36384;DHT22;22418;51.210;6.976;2024-03-23T11:47:09;11.10;99.90
36384;DHT22;22418;51.210;6.976;2024-03-23T11:49:41;11.30;99.90
36384;DHT22;22418;51.210;6.976;2024-03-23T11:52:11;11.50;99.90
36384;DHT22;22418;51.210;6.976;2024-03-23T11:54:42;11.50;99.90
36384;DHT22;22418;51.210;6.976;2024-03-23T11:57:12;11.50;99.90
36384;DHT22;22418;51.210;6.976;2024-03-23T11:59:43;11.40;99.90
36384;DHT22;22418;51.210;6.976;2024-03-23T12:02:18;11.30;99.90
36384;DHT22;22418;51.210;6.976;2024-03-23T12:04:48;11.30;99.90
36384;DHT22;22418;51.210;6.976;2024-03-23T12:07:20;11.20;99.90
36384;DHT22;22418;51.210;6.976;2024-03-23T12:10:04;11.40;99.90
36384;DHT22;22418;51.210;6.976;2024-03-23T12:12:36;11.10;99.90
36384;DHT22;22418;51.210;6.976;2024-03-23T12:15:08;10.40;99.90
36384;DHT22;22418;51.210;6.976;2024-03-23T12:17:38;10.20;99.90
36384;DHT22;22418;51.210;6.976;2024-03-23T12:20:09;10.30;99.90
36384;DHT22;22418;51.210;6.976;2024-03-23T12:22:40;10.20;99.90
36384;DHT22;22418;51.210;6.976;2024-03-23T12:25:10;10.30;99.90
36384;DHT22;22418;51.210;6.976;2024-03-23T12:27:41;10.40;99.90
36384;DHT22;22418;51.210;6.976;2024-03-23T12:30:12;10.50;99.90
36384;DHT22;22418;51.210;6.976;2024-03-23T12:32:42;10.60;99.90
36384;DHT22;22418;51.210;6.976;2024-03-23T12:35:13;10.70;99.90
36384;DHT22;22418;51.210;6.976;2024-03-23T12:37:44;10.80;99.90
36384;DHT22;22418;51.210;6.976;2024-03-23T12:40:14;10.60;99.90
36384;DHT22;22418;51.210;6.976;2024-03-23T12:42:45;10.60;99.90
36384;DHT22;22418;51.210;6.976;2024-03-23T12:45:16;10.60;99.90
36384;DHT22;22418;51.210;6.976;2024-03-23T12:47:46;10.70;99.90
36384;DHT22;22418;51.210;6.976;2024-03-23T12:50:17;10.80;99.90
36384;DHT22;22418;51.210;6.976;2024-03-23T12:52:48;11.00;99.90
36384;DHT22;22418;51.210;6.976;2024-03-23T12:55:18;11.20;99.90
36384;DHT22;22418;51.210;6.976;2024-03-23T12:57:49;11.20;99.90
36384;DHT22;22418;51.210;6.976;2024-03-23T13:00:19;10.90;99.90
36384;DHT22;22418;51.210;6.976;2024-03-23T13:02:50;10.60;99.90
36384;DHT22;22418;51.210;6.976;2024-03-23T13:05:21;10.60;99.90
36384;DHT22;22418;51.210;6.976;2024-03-23T13:07:51;10.80;99.90
36384;DHT22;22418;51.210;6.976;2024-03-23T13:10:22;10.80;99.90
36384;DHT22;22418;51.210;6.976;2024-03-23T13:12:52;11.10;99.90
36384;DHT22;22418;51.210;6.976;2024-03-23T13:15:23;11.30;99.90
36384;DHT22;22418;51.210;6.976;2024-03-23T13:17:54;11.50;99.90
36384;DHT22;22418;51.210;6.976;2024-03-23T13:20:24;11.50;99.90
36384;DHT22;22418;51.210;6.976;2024-03-23T13:22:55;11.50;99.90
36384;DHT22;22418;51.210;6.976;2024-03-23T13:25:26;11.50;99.90
36384;DHT22;22418;51.210;6.976;2024-03-23T13:27:56;11.50;99.90
36384;DHT22;22418;51.210;6.976;2024-03-23T13:30:27;11.60;99.90
36384;DHT22;22418;51.210;6.976;2024-03-23T13:32:58;11.20;99.90
36384;DHT22;22418;51.210;6.976;2024-03-23T13:35:28;11.10;99.90
36384;DHT22;22418;51.210;6.976;2024-03-23T13:37:59;10.90;99.90
36384;DHT22;22418;51.210;6.976;2024-03-23T13:40:30;10.70;99.90
36384;DHT22;22418;51.210;6.976;2024-03-23T13:43:00;10.60;99.90
36384;DHT22;22418;51.210;6.976;2024-03-23T13:45:31;10.30;99.90
36384;DHT22;22418;51.210;6.976;2024-03-23T13:48:01;10.50;99.90
36384;DHT22;22418;51.210;6.976;2024-03-23T13:50:32;10.70;99.90
36384;DHT22;22418;51.210;6.976;2024-03-23T13:53:02;11.00;99.90
36384;DHT22;22418;51.210;6.976;2024-03-23T13:55:33;11.30;99.90
36384;DHT22;22418;51.210;6.976;2024-03-23T13:58:04;11.50;99.90
36384;DHT22;22418;51.210;6.976;2024-03-23T14:00:34;11.50;99.90
36384;DHT22;22418;51.210;6.976;2024-03-23T14:03:05;11.40;99.90
36384;DHT22;22418;51.210;6.976;2024-03-23T14:05:36;11.30;99.90
36384;DHT22;22418;51.210;6.976;2024-03-23T14:08:09;11.10;99.90
36384;DHT22;22418;51.210;6.976;2024-03-23T14:10:40;10.90;99.90
36384;DHT22;22418;51.210;6.976;2024-03-23T14:13:11;10.90;99.90
36384;DHT22;22418;51.210;6.976;2024-03-23T14:15:41;10.80;99.90
36384;DHT22;22418;51.210;6.976;2024-03-23T14:18:12;10.80;99.90
36384;DHT22;22418;51.210;6.976;2024-03-23T14:20:44;10.90;99.90
36384;DHT22;22418;51.210;6.976;2024-03-23T14:23:14;11.00;99.90
36384;DHT22;22418;51.210;6.976;2024-03-23T14:25:45;11.30;99.90
36384;DHT22;22418;51.210;6.976;2024-03-23T14:28:15;11.50;99.90
36384;DHT22;22418;51.210;6.976;2024-03-23T14:30:46;11.80;99.90
36384;DHT22;22418;51.210;6.976;2024-03-23T14:33:17;11.90;99.90
36384;DHT22;22418;51.210;6.976;2024-03-23T14:35:57;11.70;99.90
36384;DHT22;22418;51.210;6.976;2024-03-23T14:38:28;11.80;99.90
36384;DHT22;22418;51.210;6.976;2024-03-23T14:40:59;11.60;99.90
36384;DHT22;22418;51.210;6.976;2024-03-23T14:43:30;11.50;99.90
36384;DHT22;22418;51.210;6.976;2024-03-23T14:48:37;11.30;99.90
36384;DHT22;22418;51.210;6.976;2024-03-23T14:51:09;11.10;99.90
36384;DHT22;22418;51.210;6.976;2024-03-23T14:53:41;10.70;99.90
36384;DHT22;22418;51.210;6.976;2024-03-23T14:56:15;10.40;99.90
36384;DHT22;22418;51.210;6.976;2024-03-23T14:58:46;10.60;99.90
36384;DHT22;22418;51.210;6.976;2024-03-23T15:01:17;10.60;99.90
36384;DHT22;22418;51.210;6.976;2024-03-23T15:03:48;10.60;99.90
36384;DHT22;22418;51.210;6.976;2024-03-23T15:06:19;10.70;99.90
36384;DHT22;22418;51.210;6.976;2024-03-23T15:08:49;10.70;99.90
36384;DHT22;22418;51.210;6.976;2024-03-23T15:11:20;10.70;99.90
36384;DHT22;22418;51.210;6.976;2024-03-23T15:13:50;10.60;99.90
36384;DHT22;22418;51.210;6.976;2024-03-23T15:16:21;10.70;99.90
36384;DHT22;22418;51.210;6.976;2024-03-23T15:18:51;10.90;99.90
36384;DHT22;22418;51.210;6.976;2024-03-23T15:21:22;11.00;99.90
36384;DHT22;22418;51.210;6.976;2024-03-23T15:23:53;11.00;99.90
36384;DHT22;22418;51.210;6.976;2024-03-23T15:26:23;11.00;99.90
36384;DHT22;22418;51.210;6.976;2024-03-23T15:28:54;10.90;99.90
36384;DHT22;22418;51.210;6.976;2024-03-23T15:31:40;10.90;99.90
36384;DHT22;22418;51.210;6.976;2024-03-23T15:34:10;10.90;99.90
36384;DHT22;22418;51.210;6.976;2024-03-23T15:36:41;11.00;99.90
36384;DHT22;22418;51.210;6.976;2024-03-23T15:39:11;11.10;99.90
36384;DHT22;22418;51.210;6.976;2024-03-23T15:41:45;11.20;99.90
36384;DHT22;22418;51.210;6.976;2024-03-23T15:44:16;11.20;99.90
36384;DHT22;22418;51.210;6.976;2024-03-23T15:46:46;11.20;99.90
36384;DHT22;22418;51.210;6.976;2024-03-23T15:49:17;11.20;99.90
36384;DHT22;22418;51.210;6.976;2024-03-23T15:51:47;11.20;99.90
36384;DHT22;22418;51.210;6.976;2024-03-23T15:54:18;11.10;99.90
36384;DHT22;22418;51.210;6.976;2024-03-23T15:56:48;11.10;99.90
36384;DHT22;22418;51.210;6.976;2024-03-23T15:59:19;11.00;99.90
36384;DHT22;22418;51.210;6.976;2024-03-23T16:01:49;10.80;99.90
36384;DHT22;22418;51.210;6.976;2024-03-23T16:04:20;10.70;99.90
36384;DHT22;22418;51.210;6.976;2024-03-23T16:06:51;10.60;99.90
36384;DHT22;22418;51.210;6.976;2024-03-23T16:09:22;10.60;99.90
36384;DHT22;22418;51.210;6.976;2024-03-23T16:11:53;10.50;99.90
36384;DHT22;22418;51.210;6.976;2024-03-23T16:14:23;10.50;99.90
36384;DHT22;22418;51.210;6.976;2024-03-23T16:16:54;10.50;99.90
36384;DHT22;22418;51.210;6.976;2024-03-23T16:19:25;10.40;99.90
36384;DHT22;22418;51.210;6.976;2024-03-23T16:21:55;10.50;99.90
36384;DHT22;22418;51.210;6.976;2024-03-23T16:24:26;10.40;99.90
36384;DHT22;22418;51.210;6.976;2024-03-23T16:26:56;10.40;99.90
36384;DHT22;22418;51.210;6.976;2024-03-23T16:29:27;10.30;99.90
36384;DHT22;22418;51.210;6.976;2024-03-23T16:31:58;10.30;99.90
36384;DHT22;22418;51.210;6.976;2024-03-23T16:34:28;10.20;99.90
36384;DHT22;22418;51.210;6.976;2024-03-23T16:36:59;10.20;99.90
36384;DHT22;22418;51.210;6.976;2024-03-23T16:39:29;10.20;99.90
36384;DHT22;22418;51.210;6.976;2024-03-23T16:42:00;10.20;99.90
36384;DHT22;22418;51.210;6.976;2024-03-23T16:44:30;10.20;99.90
36384;DHT22;22418;51.210;6.976;2024-03-23T16:47:01;10.30;99.90
36384;DHT22;22418;51.210;6.976;2024-03-23T16:49:32;10.20;99.90
36384;DHT22;22418;51.210;6.976;2024-03-23T16:52:02;10.40;99.90
36384;DHT22;22418;51.210;6.976;2024-03-23T16:54:34;10.50;99.90
36384;DHT22;22418;51.210;6.976;2024-03-23T16:57:05;10.50;99.90
36384;DHT22;22418;51.210;6.976;2024-03-23T16:59:36;10.50;99.90
36384;DHT22;22418;51.210;6.976;2024-03-23T17:02:06;10.40;99.90